createdAt,value
2018-11-11T00:00:46.127Z,79.97
2018-11-11T00:03:19.233Z,80.97
2018-11-11T00:05:48.719Z,81.10
2018-11-11T00:08:21.766Z,81.69
2018-11-11T00:10:53.163Z,81.56
2018-11-11T00:13:21.703Z,81.70
2018-11-11T00:15:50.703Z,81.89
2018-11-11T00:18:19.429Z,82.25
2018-11-11T00:20:47.917Z,83.69
2018-11-11T00:23:16.468Z,82.78
2018-11-11T00:25:45.805Z,82.89
2018-11-11T00:28:14.558Z,84.86
2018-11-11T00:30:43.117Z,85.47
2018-11-11T00:33:11.715Z,86.36
2018-11-11T00:35:40.263Z,87.22
2018-11-11T00:38:08.741Z,87.75
2018-11-11T00:40:37.466Z,89.17
2018-11-11T00:43:06.516Z,89.98
2018-11-11T00:45:35.075Z,90.31
2018-11-11T00:48:05.363Z,90.12
2018-11-11T00:50:34.012Z,90.34
2018-11-11T00:53:02.556Z,90.50
2018-11-11T00:55:35.590Z,91.40
2018-11-11T00:58:05.039Z,91.99
2018-11-11T01:00:33.567Z,92.43
2018-11-11T01:03:02.706Z,93.00
2018-11-11T01:05:31.481Z,94.46
2018-11-11T01:08:00.152Z,94.89
2018-11-11T01:10:29.528Z,95.10
2018-11-11T01:12:58.188Z,96.31
2018-11-11T01:15:27.127Z,97.03
2018-11-11T01:17:55.778Z,98.34
2018-11-11T01:20:25.102Z,98.48
2018-11-11T01:22:53.803Z,98.93
2018-11-11T01:25:22.349Z,99.13
2018-11-11T01:27:51.788Z,99.34
2018-11-11T01:30:20.316Z,99.23
2018-11-11T01:32:49.072Z,99.77
2018-11-11T01:35:17.989Z,99.02
2018-11-11T01:37:46.846Z,99.55
2018-11-11T01:40:16.113Z,100.00
2018-11-11T01:42:44.961Z,99.31
2018-11-11T01:45:19.137Z,98.61
2018-11-11T01:47:48.677Z,99.66
2018-11-11T01:50:18.492Z,100.00
2018-11-11T01:52:49.040Z,100.00
2018-11-11T01:55:20.374Z,100.00
2018-11-11T01:57:49.160Z,100.00
2018-11-11T02:00:18.810Z,100.00
2018-11-11T02:02:48.390Z,100.00
2018-11-11T02:05:17.172Z,100.00
2018-11-11T02:07:46.626Z,100.00
2018-11-11T02:10:15.510Z,100.00
2018-11-11T02:12:45.163Z,100.00
2018-11-11T02:15:15.386Z,100.00
2018-11-11T02:17:44.077Z,100.00
2018-11-11T02:20:15.044Z,100.00
2018-11-11T02:22:45.272Z,100.00
2018-11-11T02:25:14.175Z,100.00
2018-11-11T02:27:42.766Z,100.00
2018-11-11T02:30:13.936Z,100.00
2018-11-11T02:32:43.014Z,100.00
2018-11-11T02:35:12.620Z,100.00
2018-11-11T02:37:42.168Z,100.00
2018-11-11T02:40:12.611Z,100.00
2018-11-11T02:42:41.391Z,100.00
2018-11-11T02:45:17.905Z,100.00
2018-11-11T02:47:46.646Z,100.00
2018-11-11T02:50:16.475Z,100.00
2018-11-11T02:52:46.796Z,99.69
2018-11-11T02:55:15.805Z,99.84
2018-11-11T02:57:45.314Z,98.98
2018-11-11T03:00:16.017Z,99.14
2018-11-11T03:02:46.438Z,98.50
2018-11-11T03:05:16.013Z,98.72
2018-11-11T03:07:44.653Z,98.44
2018-11-11T03:10:14.600Z,98.77
2018-11-11T03:12:43.764Z,99.11
2018-11-11T03:15:14.149Z,98.97
2018-11-11T03:17:43.318Z,98.14
2018-11-11T03:20:12.950Z,99.02
2018-11-11T03:22:41.538Z,99.45
2018-11-11T03:25:11.901Z,98.81
2018-11-11T03:27:40.891Z,98.27
2018-11-11T03:30:11.211Z,97.87
2018-11-11T03:32:40.246Z,95.92
2018-11-11T03:35:10.614Z,96.34
2018-11-11T03:37:39.314Z,94.47
2018-11-11T03:40:14.040Z,94.57
2018-11-11T03:42:43.410Z,94.50
2018-11-11T03:45:15.152Z,95.11
2018-11-11T03:47:44.809Z,94.70
2018-11-11T03:50:13.551Z,94.45
2018-11-11T03:52:43.394Z,94.40
2018-11-11T03:55:12.427Z,93.90
2018-11-11T03:57:41.298Z,93.80
2018-11-11T04:00:13.636Z,94.61
2018-11-11T04:02:43.192Z,93.70
2018-11-11T04:05:13.667Z,93.29
2018-11-11T04:07:42.433Z,93.33
2018-11-11T04:10:14.526Z,93.58
2018-11-11T04:12:43.208Z,92.59
2018-11-11T04:15:13.950Z,94.11
2018-11-11T04:17:42.627Z,93.24
2018-11-11T04:20:13.420Z,93.23
2018-11-11T04:22:42.123Z,93.70
2018-11-11T04:25:11.569Z,94.01
2018-11-11T04:27:41.272Z,93.63
2018-11-11T04:30:10.961Z,94.04
2018-11-11T04:32:39.667Z,94.54
2018-11-11T04:35:08.327Z,94.84
2018-11-11T04:37:37.706Z,94.94
2018-11-11T04:40:08.322Z,95.54
2018-11-11T04:42:36.976Z,94.74
2018-11-11T04:45:06.903Z,94.85
2018-11-11T04:47:36.090Z,94.58
2018-11-11T04:50:05.852Z,95.83
2018-11-11T04:52:34.979Z,96.06
2018-11-11T04:55:03.661Z,96.90
2018-11-11T04:57:32.227Z,97.29
2018-11-11T05:00:01.175Z,97.60
2018-11-11T05:02:29.670Z,98.48
2018-11-11T05:04:58.242Z,98.56
2018-11-11T05:07:26.723Z,98.13
2018-11-11T05:09:55.279Z,98.56
2018-11-11T05:12:23.757Z,98.51
2018-11-11T05:14:52.762Z,98.80
2018-11-11T05:17:21.707Z,99.04
2018-11-11T05:19:50.969Z,98.98
2018-11-11T05:22:19.649Z,99.05
2018-11-11T05:24:48.137Z,98.57
2018-11-11T05:27:17.698Z,98.51
2018-11-11T05:29:46.259Z,98.16
2018-11-11T05:32:14.869Z,97.89
2018-11-11T05:34:43.593Z,98.03
2018-11-11T05:37:12.999Z,97.59
2018-11-11T05:39:42.307Z,97.70
2018-11-11T05:42:11.820Z,97.18
2018-11-11T05:44:40.492Z,96.60
2018-11-11T05:47:09.140Z,97.05
2018-11-11T05:49:37.616Z,97.24
2018-11-11T05:52:06.290Z,97.10
2018-11-11T05:54:34.870Z,97.43
2018-11-11T05:57:04.071Z,97.05
2018-11-11T05:59:32.756Z,97.65
2018-11-11T06:02:01.307Z,98.53
2018-11-11T06:04:30.115Z,98.93
2018-11-11T06:06:58.697Z,100.00
2018-11-11T06:09:27.272Z,100.00
2018-11-11T06:11:56.532Z,100.00
2018-11-11T06:14:25.301Z,100.00
2018-11-11T06:16:53.850Z,100.00
2018-11-11T06:19:22.454Z,100.00
2018-11-11T06:21:51.134Z,100.00
2018-11-11T06:24:19.669Z,100.00
2018-11-11T06:26:48.496Z,100.00
2018-11-11T06:29:17.608Z,100.00
2018-11-11T06:31:46.138Z,100.00
2018-11-11T06:34:14.921Z,100.00
2018-11-11T06:36:43.384Z,100.00
2018-11-11T06:39:13.230Z,100.00
2018-11-11T06:41:42.103Z,100.00
2018-11-11T06:44:10.724Z,100.00
2018-11-11T06:46:39.287Z,100.00
2018-11-11T06:49:07.995Z,100.00
2018-11-11T06:51:36.804Z,100.00
2018-11-11T06:54:06.004Z,100.00
2018-11-11T06:56:35.144Z,100.00
2018-11-11T06:59:03.714Z,100.00
2018-11-11T07:01:33.267Z,100.00
2018-11-11T07:04:03.064Z,100.00
2018-11-11T07:06:33.122Z,100.00
2018-11-11T07:09:01.580Z,100.00
2018-11-11T07:11:30.066Z,100.00
2018-11-11T07:13:58.679Z,100.00
2018-11-11T07:16:27.352Z,100.00
2018-11-11T07:18:55.994Z,100.00
2018-11-11T07:21:24.703Z,100.00
2018-11-11T07:23:53.324Z,100.00
2018-11-11T07:26:21.956Z,100.00
2018-11-11T07:28:50.775Z,100.00
2018-11-11T07:31:19.453Z,100.00
2018-11-11T07:33:48.054Z,100.00
2018-11-11T07:36:17.023Z,100.00
2018-11-11T07:38:46.263Z,100.00
2018-11-11T07:41:16.134Z,100.00
2018-11-11T07:43:45.569Z,100.00
2018-11-11T07:46:14.466Z,100.00
2018-11-11T07:48:44.797Z,100.00
2018-11-11T07:51:14.806Z,100.00
2018-11-11T07:53:44.899Z,100.00
2018-11-11T07:56:18.703Z,100.00
2018-11-11T07:58:48.639Z,100.00
2018-11-11T08:01:19.646Z,100.00
2018-11-11T08:03:48.972Z,100.00
2018-11-11T08:06:18.519Z,100.00
2018-11-11T08:08:47.245Z,100.00
2018-11-11T08:11:27.203Z,100.00
2018-11-11T08:13:56.962Z,100.00
2018-11-11T08:16:26.255Z,100.00
2018-11-11T08:18:55.123Z,100.00
2018-11-11T08:21:24.049Z,100.00
2018-11-11T08:23:53.968Z,100.00
2018-11-11T08:26:23.223Z,100.00
2018-11-11T08:28:57.072Z,100.00
2018-11-11T08:31:29.337Z,100.00
2018-11-11T08:36:08.281Z,100.00
2018-11-11T08:38:36.875Z,100.00
2018-11-11T08:41:06.054Z,100.00
2018-11-11T08:43:35.014Z,100.00
2018-11-11T08:46:04.950Z,100.00
2018-11-11T08:48:33.669Z,100.00
2018-11-11T08:51:03.224Z,100.00
2018-11-11T08:53:33.319Z,100.00
2018-11-11T08:56:01.911Z,100.00
2018-11-11T08:58:31.712Z,100.00
2018-11-11T09:01:00.266Z,100.00
2018-11-11T09:03:30.020Z,100.00
2018-11-11T09:05:59.451Z,100.00
2018-11-11T09:08:30.084Z,100.00
2018-11-11T09:11:01.162Z,100.00
2018-11-11T09:13:30.352Z,100.00
2018-11-11T09:15:58.870Z,100.00
2018-11-11T09:18:27.966Z,100.00
2018-11-11T09:20:56.603Z,100.00
2018-11-11T09:23:25.311Z,100.00
2018-11-11T09:25:54.902Z,100.00
2018-11-11T09:28:23.558Z,100.00
2018-11-11T09:30:52.246Z,100.00
2018-11-11T09:33:20.789Z,100.00
2018-11-11T09:35:51.109Z,100.00
2018-11-11T09:38:19.784Z,99.82
2018-11-11T09:40:49.842Z,99.47
2018-11-11T09:43:18.571Z,98.63
2018-11-11T09:45:47.918Z,97.98
2018-11-11T09:48:18.041Z,96.77
2018-11-11T09:50:46.767Z,96.06
2018-11-11T09:53:16.094Z,93.87
2018-11-11T09:55:45.263Z,92.12
2018-11-11T09:58:17.104Z,90.61
2018-11-11T10:00:49.821Z,88.73
2018-11-11T10:03:29.238Z,89.27
2018-11-11T10:06:05.865Z,87.86
2018-11-11T10:08:46.415Z,86.83
2018-11-11T10:11:29.064Z,87.48
2018-11-11T10:15:04.285Z,86.89
2018-11-11T10:17:43.695Z,87.15
2018-11-11T10:20:22.404Z,86.95
2018-11-11T10:22:56.529Z,88.28
2018-11-11T10:26:30.155Z,85.20
2018-11-11T10:29:04.023Z,83.68
2018-11-11T10:31:39.334Z,83.50
2018-11-11T10:34:13.030Z,84.68
2018-11-11T10:37:44.878Z,85.17
2018-11-11T10:40:33.451Z,82.64
2018-11-11T10:43:11.262Z,79.98
2018-11-11T10:45:51.725Z,78.10
2018-11-11T10:48:24.610Z,77.20
2018-11-11T10:50:56.573Z,77.45
2018-11-11T10:53:25.386Z,77.20
2018-11-11T10:55:55.218Z,77.06
2018-11-11T10:58:24.417Z,75.13
2018-11-11T11:00:58.272Z,74.55
2018-11-11T11:03:32.053Z,73.54
2018-11-11T11:06:01.988Z,73.09
2018-11-11T11:08:31.118Z,72.61
2018-11-11T11:10:59.880Z,71.91
2018-11-11T11:13:29.739Z,72.02
2018-11-11T11:15:59.135Z,70.15
2018-11-11T11:18:27.642Z,69.08
2018-11-11T11:20:56.368Z,69.24
2018-11-11T11:23:25.066Z,68.87
2018-11-11T11:25:53.640Z,69.06
2018-11-11T11:28:22.113Z,68.30
2018-11-11T11:30:50.607Z,67.35
2018-11-11T11:33:19.164Z,67.48
2018-11-11T11:35:47.682Z,65.89
2018-11-11T11:38:16.585Z,64.16
2018-11-11T11:40:45.487Z,62.63
2018-11-11T11:43:14.204Z,63.35
2018-11-11T11:45:43.640Z,61.98
2018-11-11T11:48:12.109Z,61.57
2018-11-11T11:50:41.363Z,62.54
2018-11-11T11:53:09.924Z,62.56
2018-11-11T11:55:38.475Z,62.41
2018-11-11T11:58:23.826Z,61.78
2018-11-11T12:00:53.126Z,62.18
2018-11-11T12:03:21.783Z,61.85
2018-11-11T12:05:50.453Z,61.37
2018-11-11T12:08:19.196Z,62.03
2018-11-11T12:10:47.820Z,61.29
2018-11-11T12:13:20.981Z,61.50
2018-11-11T12:15:49.749Z,61.48
2018-11-11T12:18:18.484Z,61.99
2018-11-11T12:20:47.615Z,62.67
2018-11-11T12:23:17.039Z,63.06
2018-11-11T12:25:45.627Z,62.02
2018-11-11T12:28:14.230Z,62.56
2018-11-11T12:30:42.951Z,62.16
2018-11-11T12:33:12.262Z,60.09
2018-11-11T12:35:40.971Z,59.96
2018-11-11T12:38:11.221Z,59.41
2018-11-11T12:40:40.628Z,59.80
2018-11-11T12:43:10.133Z,59.15
2018-11-11T12:45:39.312Z,60.00
2018-11-11T12:48:08.252Z,59.46
2018-11-11T12:50:36.855Z,59.57
2018-11-11T12:53:05.790Z,59.94
2018-11-11T12:55:34.584Z,60.39
2018-11-11T12:58:03.063Z,60.35
2018-11-11T13:00:31.796Z,60.14
2018-11-11T13:03:00.538Z,60.41
2018-11-11T13:05:31.322Z,60.96
2018-11-11T13:08:00.190Z,60.95
2018-11-11T13:10:28.868Z,60.33
2018-11-11T13:12:57.359Z,60.77
2018-11-11T13:15:27.069Z,60.94
2018-11-11T13:17:56.667Z,61.39
2018-11-11T13:20:26.743Z,61.70
2018-11-11T13:22:56.604Z,61.52
2018-11-11T13:25:25.307Z,61.34
2018-11-11T13:27:55.218Z,61.58
2018-11-11T13:30:23.972Z,62.69
2018-11-11T13:32:52.574Z,62.13
2018-11-11T13:35:21.368Z,62.68
2018-11-11T13:37:50.565Z,63.28
2018-11-11T13:40:20.517Z,63.20
2018-11-11T13:42:49.247Z,63.17
2018-11-11T13:45:21.262Z,64.12
2018-11-11T13:47:50.992Z,64.58
2018-11-11T13:50:23.056Z,63.98
2018-11-11T13:52:52.102Z,64.51
2018-11-11T13:55:22.594Z,64.66
2018-11-11T13:57:51.652Z,64.79
2018-11-11T14:00:22.730Z,64.93
2018-11-11T14:02:52.535Z,65.29
2018-11-11T14:05:22.248Z,65.50
2018-11-11T14:07:51.900Z,65.15
2018-11-11T14:10:20.583Z,64.97
2018-11-11T14:12:49.193Z,64.91
2018-11-11T14:15:20.629Z,64.96
2018-11-11T14:17:49.470Z,64.98
2018-11-11T14:20:19.400Z,65.44
2018-11-11T14:22:48.958Z,65.33
2018-11-11T14:25:21.382Z,65.77
2018-11-11T14:27:49.952Z,66.45
2018-11-11T14:30:19.928Z,66.20
2018-11-11T14:32:49.475Z,66.31
2018-11-11T14:35:17.993Z,66.52
2018-11-11T14:37:46.958Z,66.95
2018-11-11T14:40:17.838Z,67.46
2018-11-11T14:42:47.793Z,67.00
2018-11-11T14:45:17.342Z,60.01
2018-11-11T14:47:47.136Z,55.93
2018-11-11T14:50:17.042Z,54.75
2018-11-11T14:52:46.114Z,56.45
2018-11-11T14:55:18.199Z,57.70
2018-11-11T14:57:46.800Z,59.35
2018-11-11T15:00:18.158Z,62.02
2018-11-11T15:02:49.981Z,63.38
2018-11-11T15:05:19.050Z,64.36
2018-11-11T15:07:47.592Z,65.32
2018-11-11T15:10:16.319Z,65.88
2018-11-11T15:12:45.242Z,66.82
2018-11-11T15:15:17.117Z,67.71
2018-11-11T15:17:46.393Z,69.04
2018-11-11T15:20:15.981Z,69.84
2018-11-11T15:22:44.952Z,70.29
2018-11-11T15:25:15.778Z,71.34
2018-11-11T15:27:45.531Z,72.18
2018-11-11T15:30:18.997Z,73.11
2018-11-11T15:32:47.753Z,74.04
2018-11-11T15:35:17.093Z,74.13
2018-11-11T15:37:45.677Z,75.15
2018-11-11T15:40:15.902Z,75.24
2018-11-11T15:42:44.621Z,76.29
2018-11-11T15:45:15.758Z,77.23
2018-11-11T15:47:44.599Z,77.46
2018-11-11T15:50:15.607Z,78.22
2018-11-11T15:52:47.049Z,79.68
2018-11-11T15:55:16.911Z,81.35
2018-11-11T15:57:45.628Z,82.57
2018-11-11T16:00:16.548Z,83.97
2018-11-11T16:02:45.657Z,85.34
2018-11-11T16:05:15.257Z,87.22
2018-11-11T16:07:44.572Z,87.50
2018-11-11T16:10:14.815Z,88.46
2018-11-11T16:12:43.822Z,89.29
2018-11-11T16:15:15.668Z,89.31
2018-11-11T16:17:45.126Z,90.72
2018-11-11T16:20:15.399Z,91.63
2018-11-11T16:22:45.477Z,93.28
2018-11-11T16:25:14.128Z,94.50
2018-11-11T16:27:43.783Z,95.11
2018-11-11T16:30:18.787Z,96.74
2018-11-11T16:32:48.822Z,96.86
2018-11-11T16:35:18.459Z,97.46
2018-11-11T16:37:46.993Z,97.79
2018-11-11T16:40:17.566Z,98.71
2018-11-11T16:42:46.592Z,99.69
2018-11-11T16:45:16.814Z,100.00
2018-11-11T16:47:45.563Z,100.00
2018-11-11T16:50:16.018Z,100.00
2018-11-11T16:52:45.282Z,100.00
2018-11-11T16:55:15.015Z,100.00
2018-11-11T16:57:44.116Z,100.00
2018-11-11T17:00:18.396Z,100.00
2018-11-11T17:02:47.506Z,100.00
2018-11-11T17:05:26.810Z,100.00
2018-11-11T17:07:55.681Z,100.00
2018-11-11T17:10:27.996Z,100.00
2018-11-11T17:12:58.697Z,100.00
2018-11-11T17:15:28.433Z,100.00
2018-11-11T17:17:57.793Z,100.00
2018-11-11T17:20:29.173Z,100.00
2018-11-11T17:23:00.554Z,100.00
2018-11-11T17:25:30.213Z,100.00
2018-11-11T17:28:00.344Z,100.00
2018-11-11T17:30:30.489Z,100.00
2018-11-11T17:32:59.960Z,100.00
2018-11-11T17:35:29.140Z,100.00
2018-11-11T17:37:58.138Z,100.00
2018-11-11T17:40:28.865Z,100.00
2018-11-11T17:42:59.791Z,100.00
2018-11-11T17:45:28.829Z,100.00
2018-11-11T17:47:59.002Z,100.00
2018-11-11T17:50:29.739Z,100.00
2018-11-11T17:52:59.011Z,100.00
2018-11-11T17:55:28.767Z,100.00
2018-11-11T17:57:57.516Z,100.00
2018-11-11T18:00:27.377Z,100.00
2018-11-11T18:02:56.828Z,100.00
2018-11-11T18:05:27.622Z,100.00
2018-11-11T18:07:56.406Z,100.00
2018-11-11T18:10:25.675Z,100.00
2018-11-11T18:12:54.508Z,100.00
2018-11-11T18:15:26.390Z,100.00
2018-11-11T18:17:59.524Z,100.00
2018-11-11T18:20:30.153Z,100.00
2018-11-11T18:22:59.887Z,100.00
2018-11-11T18:25:28.762Z,100.00
2018-11-11T18:27:57.424Z,100.00
2018-11-11T18:30:29.695Z,100.00
2018-11-11T18:33:00.789Z,100.00
2018-11-11T18:35:29.802Z,100.00
2018-11-11T18:37:58.750Z,100.00
2018-11-11T18:40:28.524Z,100.00
2018-11-11T18:42:57.186Z,100.00
2018-11-11T18:45:26.908Z,100.00
2018-11-11T18:47:59.262Z,100.00
2018-11-11T18:50:30.412Z,100.00
2018-11-11T18:52:59.799Z,100.00
2018-11-11T18:55:28.552Z,100.00
2018-11-11T18:57:57.516Z,100.00
2018-11-11T19:00:27.980Z,100.00
2018-11-11T19:02:57.401Z,100.00
2018-11-11T19:05:27.033Z,100.00
2018-11-11T19:07:56.791Z,100.00
2018-11-11T19:10:27.426Z,100.00
2018-11-11T19:12:58.056Z,100.00
2018-11-11T19:15:27.131Z,100.00
2018-11-11T19:17:56.202Z,99.96
2018-11-11T19:20:25.904Z,99.47
2018-11-11T19:22:54.716Z,98.96
2018-11-11T19:25:25.568Z,99.26
2018-11-11T19:27:54.876Z,98.52
2018-11-11T19:30:24.877Z,98.47
2018-11-11T19:32:54.470Z,98.36
2018-11-11T19:35:23.715Z,98.38
2018-11-11T19:37:53.713Z,97.85
2018-11-11T19:40:23.906Z,97.48
2018-11-11T19:42:53.434Z,97.18
2018-11-11T19:45:24.043Z,96.95
2018-11-11T19:47:52.800Z,96.39
2018-11-11T19:50:22.966Z,97.14
2018-11-11T19:52:53.304Z,96.68
2018-11-11T19:55:22.759Z,96.53
2018-11-11T19:57:51.771Z,96.26
2018-11-11T20:00:22.954Z,96.28
2018-11-11T20:02:53.881Z,95.24
2018-11-11T20:05:22.842Z,94.92
2018-11-11T20:07:52.812Z,94.15
2018-11-11T20:10:22.463Z,92.13
2018-11-11T20:12:51.933Z,92.17
2018-11-11T20:15:29.003Z,92.48
2018-11-11T20:17:59.779Z,91.56
2018-11-11T20:20:33.445Z,90.63
2018-11-11T20:23:02.978Z,90.62
2018-11-11T20:25:31.742Z,89.87
2018-11-11T20:28:01.281Z,89.37
2018-11-11T20:30:31.961Z,87.67
2018-11-11T20:33:01.394Z,87.25
2018-11-11T20:35:31.911Z,87.28
2018-11-11T20:38:00.703Z,85.53
2018-11-11T20:40:30.901Z,86.13
2018-11-11T20:43:00.466Z,86.43
2018-11-11T20:45:32.278Z,85.25
2018-11-11T20:48:01.601Z,85.46
2018-11-11T20:50:31.930Z,85.75
2018-11-11T20:53:02.706Z,86.02
2018-11-11T20:55:32.153Z,85.68
2018-11-11T20:58:01.760Z,84.61
2018-11-11T21:00:32.886Z,84.05
2018-11-11T21:03:02.340Z,83.76
2018-11-11T21:05:35.163Z,84.17
2018-11-11T21:08:08.470Z,83.84
2018-11-11T21:10:40.185Z,83.72
2018-11-11T21:13:09.829Z,83.87
2018-11-11T21:15:40.274Z,82.97
2018-11-11T21:18:13.279Z,83.06
2018-11-11T21:20:43.900Z,82.99
2018-11-11T21:23:12.469Z,82.26
2018-11-11T21:25:41.392Z,81.91
2018-11-11T21:28:10.369Z,81.89
2018-11-11T21:30:42.393Z,81.80
2018-11-11T21:33:17.745Z,81.36
2018-11-11T21:35:50.201Z,81.50
2018-11-11T21:38:19.241Z,81.41
2018-11-11T21:40:47.747Z,81.99
2018-11-11T21:43:17.128Z,82.10
2018-11-11T21:45:45.830Z,82.19
2018-11-11T21:48:14.897Z,81.26
2018-11-11T21:50:48.002Z,81.81
2018-11-11T21:53:39.202Z,81.07
2018-11-11T21:56:08.896Z,81.18
2018-11-11T21:58:37.722Z,79.64
2018-11-11T22:01:07.274Z,77.71
2018-11-11T22:03:35.889Z,75.70
2018-11-11T22:06:07.765Z,75.61
2018-11-11T22:08:37.773Z,75.56
2018-11-11T22:11:08.972Z,74.24
2018-11-11T22:13:37.916Z,74.43
2018-11-11T22:16:09.794Z,74.77
2018-11-11T22:18:38.518Z,73.53
2018-11-11T22:21:08.364Z,74.08
2018-11-11T22:23:36.927Z,73.96
2018-11-11T22:26:05.646Z,73.97
2018-11-11T22:28:34.273Z,74.10
2018-11-11T22:31:03.209Z,74.69
2018-11-11T22:33:32.367Z,75.21
2018-11-11T22:36:01.107Z,75.90
2018-11-11T22:38:29.613Z,75.44
2018-11-11T22:40:58.469Z,75.58
2018-11-11T22:43:27.064Z,75.77
2018-11-11T22:45:55.567Z,75.33
2018-11-11T22:48:24.059Z,75.42
2018-11-11T22:50:52.598Z,74.59
2018-11-11T22:53:21.128Z,73.23
2018-11-11T22:55:49.651Z,73.39
2018-11-11T22:58:21.876Z,72.80
2018-11-11T23:00:56.883Z,72.93
2018-11-11T23:03:25.507Z,72.86
2018-11-11T23:05:56.485Z,73.38
2018-11-11T23:08:25.127Z,74.10
2018-11-11T23:10:59.184Z,74.05
2018-11-11T23:13:27.911Z,74.65
2018-11-11T23:15:57.089Z,74.75
2018-11-11T23:18:28.599Z,75.38
2018-11-11T23:20:57.252Z,75.86
2018-11-11T23:23:29.659Z,75.92
2018-11-11T23:26:00.600Z,76.15
2018-11-11T23:28:29.303Z,76.35
2018-11-11T23:30:58.360Z,76.78
2018-11-11T23:33:30.913Z,77.10
2018-11-11T23:36:04.847Z,76.82
2018-11-11T23:38:37.882Z,77.45
2018-11-11T23:41:07.529Z,77.79
2018-11-11T23:43:36.081Z,77.69
2018-11-11T23:46:04.771Z,78.69
2018-11-11T23:48:33.418Z,78.24
2018-11-11T23:51:02.061Z,78.86
2018-11-11T23:53:30.828Z,79.57
2018-11-11T23:56:00.157Z,79.16
2018-11-11T23:58:29.213Z,79.55
